Weather observations for the past three days for
Muskogee-Davis Regional Airport
Metric (Imperial)
Date Time (cdt) Wind (kph) Vis. (km) Weather Sky Cond. Temperature (ºC) Relative Humidity Wind Chill (°C) Heat Index (°C) Pressure Precipitation (cm)
Air Dwpt 6 hour altimeter (cm) sea level (mb) 1 hr 3 hr 6 hr
Max. Min.
06 00:53 Calm 16.09 Fair CLR 27.2 18.9 37.8 26.7 61% 28 76 1012.0
05 23:53 Calm 16.09 Fair CLR 27.8 18.9 58% 29 75.97 1011.8
05 22:53 SW 6 16.09 A Few Clouds FEW090 28.9 18.3 53% 30 75.97 1011.8
05 21:53 S 6 16.09 A Few Clouds FEW100 29.4 18.3 51% 30 75.97 1011.8
05 20:53 Calm 16.09 A Few Clouds FEW100 32.8 17.2 39% 33 75.92 1011.1
05 19:53 S 6 16.09 Fair CLR 35 17.2 35% 36 75.84 1010.3
05 18:53 SE 6 16.09 Fair CLR 37.8 17.2 40 36.1 30% 39 75.84 1010.0
05 17:53 NE 9 16.09 Fair CLR 39.4 17.2 27% 41 75.84 1010.1
05 16:53 S 13 16.09 Fair CLR 40 16.1 24% 41 75.84 1010.3
05 15:53 SE 11 16.09 Fair CLR 39.4 16.7 26% 41 75.92 1011.1
05 12:53 Vrbl 7 16.09 A Few Clouds FEW065 38.3 18.3 38.3 23.9 31% 40 76.12 1013.8
05 11:53 S 11 16.09 Fair CLR 36.7 19.4 36% 39 76.17 1014.5
05 10:53 NW 9 16.09 Fair CLR 35 20 41% 38 76.17 1014.7
05 09:53 SE 7 16.09 Fair CLR 32.8 20.6 49% 36 76.17 1014.6
05 08:53 S 9 16.09 Fair CLR 30 21.1 59% 33 76.15 1014.3
05 07:53 S 6 16.09 Fair CLR 26.1 21.1 74% 28 76.15 1014.1
05 06:53 S 6 16.09 Fair CLR 24.4 20 27.8 23.9 77% 25 76.1 1013.7
05 05:53 S 9 16.09 Fair CLR 25 20.6 77% 26 76.1 1013.5
05 04:53 S 6 16.09 Fair CLR 24.4 20.6 79% 25 76.07 1013.1
05 03:53 Calm 16.09 Fair CLR 25.6 20.6 74% 27 76.07 1013.1
05 02:53 SE 6 16.09 Fair CLR 26.1 20 69% 27 76.05 1012.9
05 01:53 SE 6 16.09 Fair CLR 26.7 19.4 64% 28 76.07 1013.3
05 00:53 SE 7 16.09 Mostly Cloudy BKN085 27.2 19.4 36.7 27.2 62% 29 76.07 1013.2
04 23:53 SE 6 16.09 A Few Clouds FEW085 28.3 18.9 57% 30 76.05 1013.0
04 22:53 S 6 16.09 A Few Clouds FEW085 28.9 18.9 55% 30 76.05 1012.7
04 21:53 S 7 16.09 Fair CLR 29.4 18.9 53% 31 76 1012.3
04 20:53 S 7 16.09 Fair CLR 31.1 18.9 48% 32 75.95 1011.4
04 19:53 SE 7 16.09 Fair CLR 33.9 18.3 40% 35 75.9 1010.9
04 18:53 E 17 16.09 Fair CLR 36.7 17.8 39.4 36.7 33% 38 75.9 1010.7
04 17:53 SE 17 G 31 16.09 A Few Clouds FEW080 38.3 17.8 30% 40 75.9 1010.8
04 16:53 E 20 16.09 Partly Cloudy SCT080 38.9 17.8 29% 41 75.92 1011.1
04 15:53 Calm 16.09 Fair CLR 38.9 17.8 29% 41 75.95 1011.7
04 14:53 Calm 16.09 Fair CLR 37.2 17.8 32% 39 76 1012.3
04 13:53 S 13 16.09 A Few Clouds FEW070 37.8 18.3 32% 40 76.05 1012.8
04 12:53 S 13 16.09 Fair CLR 37.2 17.8 37.2 22.8 32% 39 76.12 1013.9
04 11:53 S 24 G 33 16.09 Fair CLR 35 18.9 39% 37 76.17 1014.6
04 10:53 S 17 16.09 Fair CLR 33.9 19.4 42% 36 76.2 1015.0
04 09:53 S 19 G 30 16.09 Fair CLR 31.7 20.6 52% 34 76.2 1015.0
04 08:53 Vrbl 7 16.09 Fair CLR 28.3 21.1 65% 31 76.2 1014.9
04 07:53 SE 6 16.09 Fair CLR 25 20.6 77% 26 76.17 1014.7
04 06:53 SE 6 16.09 Fair CLR 23.3 20 26.7 23.3 82% 76.12 1014.1
04 05:53 SE 6 16.09 Fair CLR 23.3 20 82% 76.12 1013.9
04 04:53 SE 7 16.09 Fair CLR 23.9 20.6 82% 24 76.1 1013.5
04 03:53 SE 7 16.09 Fair CLR 23.9 20 79% 24 76.07 1013.3
04 02:53 SE 7 16.09 Fair CLR 24.4 20 77% 25 76.07 1013.1
04 01:53 SE 6 16.09 Fair CLR 25 20 74% 26 76.07 1013.3
04 00:53 SE 6 16.09 Fair CLR 26.7 19.4 35.6 26.1 64% 28 76.07 1013.1
03 23:53 S 6 16.09 Fair CLR 27.2 18.9 61% 28 76.05 1012.8
03 22:53 S 6 16.09 Fair CLR 27.8 18.9 58% 29 76.02 1012.6
03 21:53 S 6 16.09 Fair CLR 27.8 18.9 58% 29 76.02 1012.5
03 20:53 S 6 16.09 Fair CLR 31.1 18.3 46% 32 75.95 1011.4
03 19:53 S 9 16.09 Fair CLR 33.3 18.3 41% 34 75.9 1010.9
03 18:53 S 13 16.09 Fair CLR 35.6 18.3 37.8 34.4 36% 37 75.87 1010.7
03 17:53 S 13 G 31 16.09 Fair CLR 36.1 18.3 35% 38 75.87 1010.6
03 16:53 S 24 G 37 16.09 A Few Clouds FEW070 37.2 18.9 34% 39 75.9 1010.7
03 15:53 S 20 G 39 16.09 A Few Clouds FEW060 36.7 19.4 36% 39 75.92 1011.2
03 14:53 SE 15 G 41 16.09 A Few Clouds FEW060 36.7 20 38% 40 75.97 1011.9
03 13:53 SE 22 G 37 16.09 Fair CLR 36.1 20 39% 39 76.02 1012.5
03 12:53 S 20 G 35 16.09 Fair CLR 35 20 35 23.3 41% 38 76.07 1013.4
03 11:53 SE 17 G 37 16.09 Fair CLR 34.4 20 43% 37 76.15 1014.3
03 10:53 SE 17 G 35 16.09 Fair CLR 32.2 20.6 50% 35 76.15 1014.4
03 09:53 S 13 16.09 Fair CLR 30.6 20.6 55% 33 76.2 1014.9
03 08:53 SE 13 G 28 16.09 Fair CLR 28.3 20.6 63% 30 76.23 1015.3
03 07:53 SE 9 16.09 Fair CLR 25.6 20 71% 27 76.23 1015.1
03 06:53 SE 7 16.09 Fair CLR 23.3 20 27.8 22.8 82% 76.17 1014.6
03 05:53 S 6 16.09 Fair CLR 23.9 20 79% 24 76.15 1014.4
03 04:53 S 6 16.09 Fair CLR 24.4 20 77% 25 76.15 1014.1
03 03:53 SE 6 16.09 Fair CLR 25 19.4 71% 26 76.12 1013.9
03 02:53 S 6 16.09 Fair CLR 25.6 19.4 69% 27 76.12 1013.7
03 01:53 SE 7 16.09 Fair CLR 27.2 19.4 62% 29 76.1 1013.5
Date Time (cdt) Wind (kph) Vis. (km) Weather Sky Cond. Air Dwpt Max. Min. Relative Humidity Wind Chill (°C) Heat Index (°C) altimeter (cm) sea level (mb) 1 hr 3 hr 6 hr
6 hour
Temperature (ºC) Pressure Precipitation (cm)